sensor_id;sensor_type;location;lat;lon;timestamp;P1;P2;P0
69205;PMS7003;56319;48.920;2.332;2023-04-06T00:00:52;8.25;7.25;6.00
69205;PMS7003;56319;48.920;2.332;2023-04-06T00:03:18;8.50;6.25;5.25
69205;PMS7003;56319;48.920;2.332;2023-04-06T00:05:43;8.25;8.00;6.25
69205;PMS7003;56319;48.920;2.332;2023-04-06T00:08:09;11.75;5.50;4.50
69205;PMS7003;56319;48.920;2.332;2023-04-06T00:10:35;6.75;6.75;6.00
69205;PMS7003;56319;48.920;2.332;2023-04-06T00:13:01;5.25;5.25;5.25
69205;PMS7003;56319;48.920;2.332;2023-04-06T00:15:27;6.00;6.00;5.00
69205;PMS7003;56319;48.920;2.332;2023-04-06T00:17:52;7.50;6.50;5.25
69205;PMS7003;56319;48.920;2.332;2023-04-06T00:20:18;5.25;5.00;4.75
69205;PMS7003;56319;48.920;2.332;2023-04-06T00:22:44;8.00;6.75;5.50
69205;PMS7003;56319;48.920;2.332;2023-04-06T00:25:10;7.00;7.00;6.00
69205;PMS7003;56319;48.920;2.332;2023-04-06T00:27:37;6.75;6.00;5.00
69205;PMS7003;56319;48.920;2.332;2023-04-06T00:30:03;10.00;7.50;5.50
69205;PMS7003;56319;48.920;2.332;2023-04-06T00:32:30;8.50;7.00;5.00
69205;PMS7003;56319;48.920;2.332;2023-04-06T00:34:55;7.00;7.00;5.75
69205;PMS7003;56319;48.920;2.332;2023-04-06T00:37:21;7.25;7.00;5.75
69205;PMS7003;56319;48.920;2.332;2023-04-06T00:39:47;7.25;6.50;4.75
69205;PMS7003;56319;48.920;2.332;2023-04-06T00:42:12;9.75;7.50;5.75
69205;PMS7003;56319;48.920;2.332;2023-04-06T00:44:41;7.75;7.00;6.00
69205;PMS7003;56319;48.920;2.332;2023-04-06T00:47:07;8.00;7.50;6.25
69205;PMS7003;56319;48.920;2.332;2023-04-06T00:49:33;7.00;7.00;5.00
69205;PMS7003;56319;48.920;2.332;2023-04-06T00:51:59;7.50;6.25;5.00
69205;PMS7003;56319;48.920;2.332;2023-04-06T00:54:26;10.75;9.75;6.00
69205;PMS7003;56319;48.920;2.332;2023-04-06T00:56:52;9.00;9.00;6.00
69205;PMS7003;56319;48.920;2.332;2023-04-06T00:59:17;9.50;8.50;6.00
69205;PMS7003;56319;48.920;2.332;2023-04-06T01:01:43;7.25;7.25;6.25
69205;PMS7003;56319;48.920;2.332;2023-04-06T01:04:09;9.25;9.00;6.50
69205;PMS7003;56319;48.920;2.332;2023-04-06T01:06:34;12.25;8.25;7.00
69205;PMS7003;56319;48.920;2.332;2023-04-06T01:09:00;11.25;9.00;7.00
69205;PMS7003;56319;48.920;2.332;2023-04-06T01:11:26;7.75;7.25;6.25
69205;PMS7003;56319;48.920;2.332;2023-04-06T01:13:52;8.25;7.25;6.25
69205;PMS7003;56319;48.920;2.332;2023-04-06T01:16:18;6.00;6.00;5.00
69205;PMS7003;56319;48.920;2.332;2023-04-06T01:18:43;9.75;7.75;7.00
69205;PMS7003;56319;48.920;2.332;2023-04-06T01:21:09;9.00;6.75;5.25
69205;PMS7003;56319;48.920;2.332;2023-04-06T01:23:42;11.50;9.75;7.25
69205;PMS7003;56319;48.920;2.332;2023-04-06T01:26:09;9.00;6.75;6.00
69205;PMS7003;56319;48.920;2.332;2023-04-06T01:28:38;7.00;6.50;5.00
69205;PMS7003;56319;48.920;2.332;2023-04-06T01:31:07;7.25;7.25;5.75
69205;PMS7003;56319;48.920;2.332;2023-04-06T01:33:35;11.50;8.25;6.00
69205;PMS7003;56319;48.920;2.332;2023-04-06T01:36:02;9.00;6.50;5.50
69205;PMS7003;56319;48.920;2.332;2023-04-06T01:38:28;9.25;7.25;5.00
69205;PMS7003;56319;48.920;2.332;2023-04-06T01:40:54;9.25;7.00;5.75
69205;PMS7003;56319;48.920;2.332;2023-04-06T01:43:20;7.00;6.25;6.00
69205;PMS7003;56319;48.920;2.332;2023-04-06T01:45:46;7.75;7.75;6.00
69205;PMS7003;56319;48.920;2.332;2023-04-06T01:48:11;8.75;7.50;6.50
69205;PMS7003;56319;48.920;2.332;2023-04-06T01:50:37;8.50;8.50;6.50
69205;PMS7003;56319;48.920;2.332;2023-04-06T01:53:02;11.25;7.75;5.25
69205;PMS7003;56319;48.920;2.332;2023-04-06T01:55:27;8.75;8.75;7.00
69205;PMS7003;56319;48.920;2.332;2023-04-06T01:57:53;7.25;6.25;6.00
69205;PMS7003;56319;48.920;2.332;2023-04-06T02:00:18;9.50;8.75;6.50
69205;PMS7003;56319;48.920;2.332;2023-04-06T02:02:44;7.25;7.00;6.00
69205;PMS7003;56319;48.920;2.332;2023-04-06T02:05:10;7.25;6.75;5.00
69205;PMS7003;56319;48.920;2.332;2023-04-06T02:07:36;8.00;6.25;6.00
69205;PMS7003;56319;48.920;2.332;2023-04-06T02:10:01;8.25;6.25;6.00
69205;PMS7003;56319;48.920;2.332;2023-04-06T02:12:27;10.25;9.00;7.25
69205;PMS7003;56319;48.920;2.332;2023-04-06T02:14:53;9.50;9.50;7.25
69205;PMS7003;56319;48.920;2.332;2023-04-06T02:17:18;10.00;10.00;7.25
69205;PMS7003;56319;48.920;2.332;2023-04-06T02:19:44;6.00;6.00;5.75
69205;PMS7003;56319;48.920;2.332;2023-04-06T02:22:10;9.00;8.75;6.75
69205;PMS7003;56319;48.920;2.332;2023-04-06T02:24:35;5.00;5.00;4.00
69205;PMS7003;56319;48.920;2.332;2023-04-06T02:27:01;3.00;3.00;2.00
69205;PMS7003;56319;48.920;2.332;2023-04-06T02:29:27;6.00;6.00;5.25
69205;PMS7003;56319;48.920;2.332;2023-04-06T02:31:52;8.25;6.00;5.00
69205;PMS7003;56319;48.920;2.332;2023-04-06T02:34:18;11.00;7.25;7.00
69205;PMS7003;56319;48.920;2.332;2023-04-06T02:36:44;11.00;9.00;6.00
69205;PMS7003;56319;48.920;2.332;2023-04-06T02:39:10;10.00;8.25;6.50
69205;PMS7003;56319;48.920;2.332;2023-04-06T02:41:36;8.25;8.25;6.00
69205;PMS7003;56319;48.920;2.332;2023-04-06T02:44:02;7.75;7.75;6.50
69205;PMS7003;56319;48.920;2.332;2023-04-06T02:46:28;8.50;7.25;5.25
69205;PMS7003;56319;48.920;2.332;2023-04-06T02:48:54;11.50;7.25;6.00
69205;PMS7003;56319;48.920;2.332;2023-04-06T02:51:20;6.50;6.50;5.75
69205;PMS7003;56319;48.920;2.332;2023-04-06T02:53:46;9.50;9.00;6.00
69205;PMS7003;56319;48.920;2.332;2023-04-06T02:56:11;8.25;8.25;7.00
69205;PMS7003;56319;48.920;2.332;2023-04-06T02:58:37;8.50;8.25;6.25
69205;PMS7003;56319;48.920;2.332;2023-04-06T03:01:03;7.00;6.00;5.00
69205;PMS7003;56319;48.920;2.332;2023-04-06T03:03:28;8.00;8.00;6.50
69205;PMS7003;56319;48.920;2.332;2023-04-06T03:05:55;8.00;8.00;5.75
69205;PMS7003;56319;48.920;2.332;2023-04-06T03:08:23;6.00;6.00;5.00
69205;PMS7003;56319;48.920;2.332;2023-04-06T03:10:49;5.50;5.50;5.00
69205;PMS7003;56319;48.920;2.332;2023-04-06T03:13:15;8.75;7.25;5.25
69205;PMS7003;56319;48.920;2.332;2023-04-06T03:15:41;5.00;5.00;4.75
69205;PMS7003;56319;48.920;2.332;2023-04-06T03:18:06;7.50;5.75;5.00
69205;PMS7003;56319;48.920;2.332;2023-04-06T03:20:32;6.75;6.75;5.50
69205;PMS7003;56319;48.920;2.332;2023-04-06T03:22:58;9.00;7.25;5.75
69205;PMS7003;56319;48.920;2.332;2023-04-06T03:25:23;7.50;7.50;6.25
69205;PMS7003;56319;48.920;2.332;2023-04-06T03:27:49;7.50;7.00;6.25
69205;PMS7003;56319;48.920;2.332;2023-04-06T03:30:14;7.50;7.25;5.25
69205;PMS7003;56319;48.920;2.332;2023-04-06T03:32:42;7.50;6.00;5.00
69205;PMS7003;56319;48.920;2.332;2023-04-06T03:35:09;8.50;8.00;6.00
69205;PMS7003;56319;48.920;2.332;2023-04-06T03:37:35;5.50;5.25;4.75
69205;PMS7003;56319;48.920;2.332;2023-04-06T03:40:00;8.00;7.00;5.50
69205;PMS7003;56319;48.920;2.332;2023-04-06T03:42:26;4.75;4.75;3.50
69205;PMS7003;56319;48.920;2.332;2023-04-06T03:44:52;7.00;6.00;5.00
69205;PMS7003;56319;48.920;2.332;2023-04-06T03:47:17;7.75;6.00;4.75
69205;PMS7003;56319;48.920;2.332;2023-04-06T03:49:43;6.75;6.50;5.75
69205;PMS7003;56319;48.920;2.332;2023-04-06T03:52:09;8.50;7.75;6.50
69205;PMS7003;56319;48.920;2.332;2023-04-06T03:54:34;5.25;5.25;4.25
69205;PMS7003;56319;48.920;2.332;2023-04-06T03:57:01;8.75;6.00;5.00
69205;PMS7003;56319;48.920;2.332;2023-04-06T03:59:26;8.00;7.00;6.00
69205;PMS7003;56319;48.920;2.332;2023-04-06T04:01:52;7.00;6.75;5.75
69205;PMS7003;56319;48.920;2.332;2023-04-06T04:04:17;8.50;8.50;6.00
69205;PMS7003;56319;48.920;2.332;2023-04-06T04:06:43;4.00;4.00;3.00
69205;PMS7003;56319;48.920;2.332;2023-04-06T04:09:09;6.75;6.50;5.50
69205;PMS7003;56319;48.920;2.332;2023-04-06T04:11:34;7.00;7.00;6.00
69205;PMS7003;56319;48.920;2.332;2023-04-06T04:14:00;9.00;7.00;4.75
69205;PMS7003;56319;48.920;2.332;2023-04-06T04:16:25;5.25;5.25;5.00
69205;PMS7003;56319;48.920;2.332;2023-04-06T04:18:51;10.25;6.00;5.25
69205;PMS7003;56319;48.920;2.332;2023-04-06T04:21:16;4.75;4.75;4.25
69205;PMS7003;56319;48.920;2.332;2023-04-06T04:23:42;11.00;8.25;6.00
69205;PMS7003;56319;48.920;2.332;2023-04-06T04:26:07;8.25;6.00;5.25
69205;PMS7003;56319;48.920;2.332;2023-04-06T04:28:33;5.50;5.50;5.00
69205;PMS7003;56319;48.920;2.332;2023-04-06T04:30:59;2.00;2.00;1.00
69205;PMS7003;56319;48.920;2.332;2023-04-06T04:33:24;7.50;5.75;5.25
69205;PMS7003;56319;48.920;2.332;2023-04-06T04:35:50;8.00;6.00;4.75
69205;PMS7003;56319;48.920;2.332;2023-04-06T04:38:16;6.25;6.25;5.25
69205;PMS7003;56319;48.920;2.332;2023-04-06T04:40:41;6.50;5.50;5.00
69205;PMS7003;56319;48.920;2.332;2023-04-06T04:43:07;9.00;7.75;6.00
69205;PMS7003;56319;48.920;2.332;2023-04-06T04:45:32;8.50;6.25;5.50
69205;PMS7003;56319;48.920;2.332;2023-04-06T04:47:58;6.25;6.25;6.00
69205;PMS7003;56319;48.920;2.332;2023-04-06T04:50:23;6.25;6.25;5.25
69205;PMS7003;56319;48.920;2.332;2023-04-06T04:52:49;6.00;6.00;5.50
69205;PMS7003;56319;48.920;2.332;2023-04-06T04:55:14;5.25;5.25;5.00
69205;PMS7003;56319;48.920;2.332;2023-04-06T04:57:40;5.25;5.00;4.25
69205;PMS7003;56319;48.920;2.332;2023-04-06T05:00:06;8.50;7.00;6.00
69205;PMS7003;56319;48.920;2.332;2023-04-06T05:02:32;6.25;6.25;5.00
69205;PMS7003;56319;48.920;2.332;2023-04-06T05:04:57;9.00;7.00;5.25
69205;PMS7003;56319;48.920;2.332;2023-04-06T05:07:23;7.25;7.25;5.00
69205;PMS7003;56319;48.920;2.332;2023-04-06T05:09:49;5.25;5.25;4.00
69205;PMS7003;56319;48.920;2.332;2023-04-06T05:12:14;6.25;5.75;4.75
69205;PMS7003;56319;48.920;2.332;2023-04-06T05:14:40;5.25;5.00;4.50
69205;PMS7003;56319;48.920;2.332;2023-04-06T05:17:05;5.50;5.50;4.75
69205;PMS7003;56319;48.920;2.332;2023-04-06T05:19:31;9.00;7.00;4.50
69205;PMS7003;56319;48.920;2.332;2023-04-06T05:21:57;10.25;5.00;4.75
69205;PMS7003;56319;48.920;2.332;2023-04-06T05:24:22;5.00;5.00;5.00
69205;PMS7003;56319;48.920;2.332;2023-04-06T05:26:48;7.50;6.75;5.25
69205;PMS7003;56319;48.920;2.332;2023-04-06T05:29:14;5.25;5.25;4.00
69205;PMS7003;56319;48.920;2.332;2023-04-06T05:31:40;5.25;5.25;4.50
69205;PMS7003;56319;48.920;2.332;2023-04-06T05:34:05;6.00;5.00;4.75
69205;PMS7003;56319;48.920;2.332;2023-04-06T05:36:31;7.00;6.00;5.00
69205;PMS7003;56319;48.920;2.332;2023-04-06T05:38:57;8.00;6.75;6.75
69205;PMS7003;56319;48.920;2.332;2023-04-06T05:41:23;6.75;5.00;4.25
69205;PMS7003;56319;48.920;2.332;2023-04-06T05:43:49;6.25;6.25;5.50
69205;PMS7003;56319;48.920;2.332;2023-04-06T05:46:15;6.00;6.00;5.00
69205;PMS7003;56319;48.920;2.332;2023-04-06T05:48:40;7.75;6.00;5.00
69205;PMS7003;56319;48.920;2.332;2023-04-06T05:51:06;5.25;5.25;4.00
69205;PMS7003;56319;48.920;2.332;2023-04-06T05:53:32;5.50;5.00;4.00
69205;PMS7003;56319;48.920;2.332;2023-04-06T05:56:01;7.50;5.50;4.25
69205;PMS7003;56319;48.920;2.332;2023-04-06T05:58:27;3.75;3.75;3.25
69205;PMS7003;56319;48.920;2.332;2023-04-06T06:00:58;10.25;7.25;5.25
69205;PMS7003;56319;48.920;2.332;2023-04-06T06:03:25;5.00;5.00;4.50
69205;PMS7003;56319;48.920;2.332;2023-04-06T06:05:51;8.00;6.75;5.00
69205;PMS7003;56319;48.920;2.332;2023-04-06T06:08:16;5.75;4.75;4.25
69205;PMS7003;56319;48.920;2.332;2023-04-06T06:10:42;3.00;1.50;1.50
69205;PMS7003;56319;48.920;2.332;2023-04-06T06:13:08;6.00;6.00;4.00
69205;PMS7003;56319;48.920;2.332;2023-04-06T06:15:34;4.25;3.75;3.75
69205;PMS7003;56319;48.920;2.332;2023-04-06T06:18:00;5.75;5.25;4.50
69205;PMS7003;56319;48.920;2.332;2023-04-06T06:20:25;5.25;5.25;5.00
69205;PMS7003;56319;48.920;2.332;2023-04-06T06:22:51;6.25;5.50;4.75
69205;PMS7003;56319;48.920;2.332;2023-04-06T06:25:17;6.00;5.00;4.50
69205;PMS7003;56319;48.920;2.332;2023-04-06T06:27:43;8.00;5.25;4.50
69205;PMS7003;56319;48.920;2.332;2023-04-06T06:30:08;4.50;4.50;4.50
69205;PMS7003;56319;48.920;2.332;2023-04-06T06:32:34;6.00;6.00;5.50
69205;PMS7003;56319;48.920;2.332;2023-04-06T06:35:00;7.00;6.75;5.00
69205;PMS7003;56319;48.920;2.332;2023-04-06T06:37:25;8.75;6.00;5.50
69205;PMS7003;56319;48.920;2.332;2023-04-06T06:39:51;6.75;6.75;6.00
69205;PMS7003;56319;48.920;2.332;2023-04-06T06:42:17;6.00;6.00;5.25
69205;PMS7003;56319;48.920;2.332;2023-04-06T06:44:42;12.50;7.00;4.50
69205;PMS7003;56319;48.920;2.332;2023-04-06T06:47:08;6.75;5.50;4.00
69205;PMS7003;56319;48.920;2.332;2023-04-06T06:49:33;14.75;10.00;9.00
69205;PMS7003;56319;48.920;2.332;2023-04-06T06:51:59;9.00;9.00;7.00
69205;PMS7003;56319;48.920;2.332;2023-04-06T06:54:24;10.75;10.75;9.00
69205;PMS7003;56319;48.920;2.332;2023-04-06T06:56:50;13.00;9.25;7.00
69205;PMS7003;56319;48.920;2.332;2023-04-06T06:59:15;10.00;9.25;6.00
69205;PMS7003;56319;48.920;2.332;2023-04-06T07:01:41;14.25;11.50;9.00
69205;PMS7003;56319;48.920;2.332;2023-04-06T07:04:07;14.75;9.25;6.50
69205;PMS7003;56319;48.920;2.332;2023-04-06T07:06:35;18.50;11.25;9.50
69205;PMS7003;56319;48.920;2.332;2023-04-06T07:09:00;11.25;9.75;7.50
69205;PMS7003;56319;48.920;2.332;2023-04-06T07:11:28;12.75;11.50;8.50
69205;PMS7003;56319;48.920;2.332;2023-04-06T07:13:55;13.50;8.75;6.75
69205;PMS7003;56319;48.920;2.332;2023-04-06T07:16:21;16.50;12.75;8.00
69205;PMS7003;56319;48.920;2.332;2023-04-06T07:18:46;12.00;11.00;6.50
69205;PMS7003;56319;48.920;2.332;2023-04-06T07:21:12;12.00;7.75;6.00
69205;PMS7003;56319;48.920;2.332;2023-04-06T07:23:38;14.25;10.50;8.00
69205;PMS7003;56319;48.920;2.332;2023-04-06T07:26:03;9.50;9.50;7.25
69205;PMS7003;56319;48.920;2.332;2023-04-06T07:28:29;11.75;8.50;6.50
69205;PMS7003;56319;48.920;2.332;2023-04-06T07:30:55;13.00;11.25;7.50
69205;PMS7003;56319;48.920;2.332;2023-04-06T07:33:20;12.00;8.75;7.00
69205;PMS7003;56319;48.920;2.332;2023-04-06T07:35:46;11.00;8.50;7.25
69205;PMS7003;56319;48.920;2.332;2023-04-06T07:38:11;9.00;8.00;5.25
69205;PMS7003;56319;48.920;2.332;2023-04-06T07:40:37;8.75;7.00;6.00
69205;PMS7003;56319;48.920;2.332;2023-04-06T07:43:03;6.75;6.25;5.25
69205;PMS7003;56319;48.920;2.332;2023-04-06T07:45:28;10.50;8.25;7.00
69205;PMS7003;56319;48.920;2.332;2023-04-06T07:47:55;9.25;8.25;6.00
69205;PMS7003;56319;48.920;2.332;2023-04-06T07:50:20;10.25;8.50;6.50
69205;PMS7003;56319;48.920;2.332;2023-04-06T07:52:46;11.50;9.25;7.25
69205;PMS7003;56319;48.920;2.332;2023-04-06T07:55:12;10.75;7.00;6.00
69205;PMS7003;56319;48.920;2.332;2023-04-06T07:57:37;9.25;8.50;6.50
69205;PMS7003;56319;48.920;2.332;2023-04-06T08:00:03;8.75;7.00;5.25
69205;PMS7003;56319;48.920;2.332;2023-04-06T08:02:31;7.50;6.25;5.25
69205;PMS7003;56319;48.920;2.332;2023-04-06T08:04:57;8.50;8.00;6.25
69205;PMS7003;56319;48.920;2.332;2023-04-06T08:07:22;9.25;8.00;5.75
69205;PMS7003;56319;48.920;2.332;2023-04-06T08:09:48;7.00;7.00;6.00
69205;PMS7003;56319;48.920;2.332;2023-04-06T08:12:13;10.75;6.50;5.75
69205;PMS7003;56319;48.920;2.332;2023-04-06T08:14:39;7.25;6.00;6.00
69205;PMS7003;56319;48.920;2.332;2023-04-06T08:17:05;8.25;7.00;5.25
69205;PMS7003;56319;48.920;2.332;2023-04-06T08:19:30;6.00;6.00;5.00
69205;PMS7003;56319;48.920;2.332;2023-04-06T08:21:56;7.50;5.50;5.00
69205;PMS7003;56319;48.920;2.332;2023-04-06T08:24:21;7.25;6.50;5.00
69205;PMS7003;56319;48.920;2.332;2023-04-06T08:26:47;6.50;6.00;5.25
69205;PMS7003;56319;48.920;2.332;2023-04-06T08:29:12;10.25;6.50;5.25
69205;PMS7003;56319;48.920;2.332;2023-04-06T08:31:38;9.75;9.00;6.50
69205;PMS7003;56319;48.920;2.332;2023-04-06T08:34:03;10.25;9.00;8.00
69205;PMS7003;56319;48.920;2.332;2023-04-06T08:36:30;9.50;7.00;6.00
69205;PMS7003;56319;48.920;2.332;2023-04-06T08:38:56;9.50;8.50;7.00
69205;PMS7003;56319;48.920;2.332;2023-04-06T08:41:22;10.75;8.25;6.75
69205;PMS7003;56319;48.920;2.332;2023-04-06T08:43:49;13.25;8.50;6.00
69205;PMS7003;56319;48.920;2.332;2023-04-06T08:46:18;10.75;9.00;6.75
69205;PMS7003;56319;48.920;2.332;2023-04-06T08:48:44;10.75;7.00;5.25
69205;PMS7003;56319;48.920;2.332;2023-04-06T08:51:11;9.25;7.00;5.00
69205;PMS7003;56319;48.920;2.332;2023-04-06T08:53:37;12.00;9.50;7.25
69205;PMS7003;56319;48.920;2.332;2023-04-06T08:56:03;11.75;10.75;7.00
69205;PMS7003;56319;48.920;2.332;2023-04-06T08:58:34;10.75;9.50;7.50
69205;PMS7003;56319;48.920;2.332;2023-04-06T09:01:02;7.25;7.25;6.25
69205;PMS7003;56319;48.920;2.332;2023-04-06T09:03:37;8.50;7.25;6.00
69205;PMS7003;56319;48.920;2.332;2023-04-06T09:06:05;12.00;8.75;7.00
69205;PMS7003;56319;48.920;2.332;2023-04-06T09:08:33;9.75;8.00;6.25
69205;PMS7003;56319;48.920;2.332;2023-04-06T09:11:00;15.50;9.75;7.00
69205;PMS7003;56319;48.920;2.332;2023-04-06T09:13:27;7.50;7.00;6.00
69205;PMS7003;56319;48.920;2.332;2023-04-06T09:18:38;8.50;7.50;5.50
69205;PMS7003;56319;48.920;2.332;2023-04-06T09:21:04;8.25;8.00;7.00
69205;PMS7003;56319;48.920;2.332;2023-04-06T09:23:31;12.00;10.25;7.00
69205;PMS7003;56319;48.920;2.332;2023-04-06T09:28:43;8.00;8.00;6.75
69205;PMS7003;56319;48.920;2.332;2023-04-06T09:31:26;8.50;7.00;5.75
69205;PMS7003;56319;48.920;2.332;2023-04-06T09:33:54;9.25;7.75;6.75
69205;PMS7003;56319;48.920;2.332;2023-04-06T09:39:06;14.75;12.75;9.00
69205;PMS7003;56319;48.920;2.332;2023-04-06T09:41:33;8.75;7.25;6.00
69205;PMS7003;56319;48.920;2.332;2023-04-06T09:44:02;11.50;8.50;6.75
69205;PMS7003;56319;48.920;2.332;2023-04-06T09:46:30;8.00;7.75;5.25
69205;PMS7003;56319;48.920;2.332;2023-04-06T09:49:00;10.00;8.25;7.00
69205;PMS7003;56319;48.920;2.332;2023-04-06T09:51:28;9.50;8.25;6.75
69205;PMS7003;56319;48.920;2.332;2023-04-06T09:53:56;8.00;7.00;5.00
69205;PMS7003;56319;48.920;2.332;2023-04-06T09:56:28;8.75;6.00;5.00
69205;PMS7003;56319;48.920;2.332;2023-04-06T09:59:02;8.00;5.25;4.75
69205;PMS7003;56319;48.920;2.332;2023-04-06T10:01:34;5.50;4.50;3.00
69205;PMS7003;56319;48.920;2.332;2023-04-06T10:04:05;9.50;6.25;6.00
69205;PMS7003;56319;48.920;2.332;2023-04-06T10:06:46;12.00;6.75;5.25
69205;PMS7003;56319;48.920;2.332;2023-04-06T10:09:17;6.00;6.00;5.00
69205;PMS7003;56319;48.920;2.332;2023-04-06T10:11:43;7.25;7.25;6.00
69205;PMS7003;56319;48.920;2.332;2023-04-06T10:14:09;6.75;5.75;5.00
69205;PMS7003;56319;48.920;2.332;2023-04-06T10:16:36;9.00;6.25;5.50
69205;PMS7003;56319;48.920;2.332;2023-04-06T10:19:04;5.25;5.25;4.00
69205;PMS7003;56319;48.920;2.332;2023-04-06T10:21:38;6.00;6.00;6.00
69205;PMS7003;56319;48.920;2.332;2023-04-06T10:24:06;7.50;6.00;5.00
69205;PMS7003;56319;48.920;2.332;2023-04-06T10:26:36;6.00;6.00;5.00
69205;PMS7003;56319;48.920;2.332;2023-04-06T10:29:03;5.00;5.00;4.50
69205;PMS7003;56319;48.920;2.332;2023-04-06T10:31:29;6.25;5.00;5.00
69205;PMS7003;56319;48.920;2.332;2023-04-06T10:33:55;6.00;6.00;5.00
69205;PMS7003;56319;48.920;2.332;2023-04-06T10:36:25;7.50;6.75;4.50
69205;PMS7003;56319;48.920;2.332;2023-04-06T10:38:53;5.00;5.00;4.25
69205;PMS7003;56319;48.920;2.332;2023-04-06T10:41:22;6.75;4.75;4.00
69205;PMS7003;56319;48.920;2.332;2023-04-06T10:43:54;4.75;4.75;4.00
69205;PMS7003;56319;48.920;2.332;2023-04-06T10:46:25;5.75;5.75;4.25
69205;PMS7003;56319;48.920;2.332;2023-04-06T10:48:51;5.00;4.25;4.00
69205;PMS7003;56319;48.920;2.332;2023-04-06T10:51:17;5.00;5.00;4.00
69205;PMS7003;56319;48.920;2.332;2023-04-06T10:53:44;4.25;4.25;4.00
69205;PMS7003;56319;48.920;2.332;2023-04-06T10:56:15;6.00;3.50;3.00
69205;PMS7003;56319;48.920;2.332;2023-04-06T10:58:44;6.50;5.00;4.00
69205;PMS7003;56319;48.920;2.332;2023-04-06T11:01:12;7.75;5.25;5.00
69205;PMS7003;56319;48.920;2.332;2023-04-06T11:03:42;6.00;5.00;5.00
69205;PMS7003;56319;48.920;2.332;2023-04-06T11:06:10;5.50;5.50;4.00
69205;PMS7003;56319;48.920;2.332;2023-04-06T11:08:35;8.00;6.50;5.00
69205;PMS7003;56319;48.920;2.332;2023-04-06T11:11:04;5.00;5.00;4.00
69205;PMS7003;56319;48.920;2.332;2023-04-06T11:16:26;3.75;3.25;3.00
69205;PMS7003;56319;48.920;2.332;2023-04-06T11:18:56;5.25;4.00;4.00
69205;PMS7003;56319;48.920;2.332;2023-04-06T11:24:14;5.50;4.00;3.25
69205;PMS7003;56319;48.920;2.332;2023-04-06T11:26:45;4.25;4.25;3.75
69205;PMS7003;56319;48.920;2.332;2023-04-06T11:29:17;4.00;2.25;2.00
69205;PMS7003;56319;48.920;2.332;2023-04-06T11:31:46;5.50;5.50;4.75
69205;PMS7003;56319;48.920;2.332;2023-04-06T11:34:15;7.75;5.00;4.50
69205;PMS7003;56319;48.920;2.332;2023-04-06T11:36:44;5.00;5.00;4.00
69205;PMS7003;56319;48.920;2.332;2023-04-06T11:39:11;3.75;3.00;3.00
69205;PMS7003;56319;48.920;2.332;2023-04-06T11:41:39;5.00;4.00;4.00
69205;PMS7003;56319;48.920;2.332;2023-04-06T11:44:05;3.00;3.00;2.25
69205;PMS7003;56319;48.920;2.332;2023-04-06T11:46:31;3.00;3.00;2.00
69205;PMS7003;56319;48.920;2.332;2023-04-06T11:48:59;5.25;3.50;3.00
69205;PMS7003;56319;48.920;2.332;2023-04-06T11:51:26;3.50;3.25;3.00
69205;PMS7003;56319;48.920;2.332;2023-04-06T11:53:52;5.50;3.00;3.00
69205;PMS7003;56319;48.920;2.332;2023-04-06T11:59:03;6.00;2.75;2.00
69205;PMS7003;56319;48.920;2.332;2023-04-06T12:01:29;6.75;3.00;3.00
69205;PMS7003;56319;48.920;2.332;2023-04-06T12:03:55;4.00;4.00;3.50
69205;PMS7003;56319;48.920;2.332;2023-04-06T12:06:20;0.00;0.00;0.00
69205;PMS7003;56319;48.920;2.332;2023-04-06T12:08:46;4.50;4.25;3.25
69205;PMS7003;56319;48.920;2.332;2023-04-06T12:11:11;5.50;4.25;4.00
69205;PMS7003;56319;48.920;2.332;2023-04-06T12:13:37;6.25;4.25;3.00
69205;PMS7003;56319;48.920;2.332;2023-04-06T12:16:02;2.75;2.00;2.00
69205;PMS7003;56319;48.920;2.332;2023-04-06T12:18:30;6.25;3.75;3.00
69205;PMS7003;56319;48.920;2.332;2023-04-06T12:20:56;6.00;3.00;2.00
69205;PMS7003;56319;48.920;2.332;2023-04-06T12:23:22;3.25;3.25;3.00
69205;PMS7003;56319;48.920;2.332;2023-04-06T12:25:47;4.00;4.00;4.00
69205;PMS7003;56319;48.920;2.332;2023-04-06T12:28:13;3.50;2.50;2.50
69205;PMS7003;56319;48.920;2.332;2023-04-06T12:30:39;4.75;4.75;3.25
69205;PMS7003;56319;48.920;2.332;2023-04-06T12:33:06;4.00;2.75;2.75
69205;PMS7003;56319;48.920;2.332;2023-04-06T12:35:33;5.00;3.00;2.75
69205;PMS7003;56319;48.920;2.332;2023-04-06T12:38:00;4.00;3.00;3.00
69205;PMS7003;56319;48.920;2.332;2023-04-06T12:40:25;6.25;4.00;4.00
69205;PMS7003;56319;48.920;2.332;2023-04-06T12:42:51;4.25;4.25;3.00
69205;PMS7003;56319;48.920;2.332;2023-04-06T12:45:16;4.00;3.50;2.25
69205;PMS7003;56319;48.920;2.332;2023-04-06T12:47:42;4.00;3.25;2.25
69205;PMS7003;56319;48.920;2.332;2023-04-06T12:50:07;2.00;2.00;2.00
69205;PMS7003;56319;48.920;2.332;2023-04-06T12:52:33;3.75;3.00;2.75
69205;PMS7003;56319;48.920;2.332;2023-04-06T12:55:01;2.00;2.00;2.00
69205;PMS7003;56319;48.920;2.332;2023-04-06T12:57:27;8.00;3.00;2.00
69205;PMS7003;56319;48.920;2.332;2023-04-06T12:59:53;2.75;2.25;2.25
69205;PMS7003;56319;48.920;2.332;2023-04-06T13:02:18;1.75;1.75;1.50
69205;PMS7003;56319;48.920;2.332;2023-04-06T13:04:46;3.00;3.00;2.00
69205;PMS7003;56319;48.920;2.332;2023-04-06T13:07:11;3.50;2.25;1.00
69205;PMS7003;56319;48.920;2.332;2023-04-06T13:09:37;6.00;3.75;3.00
69205;PMS7003;56319;48.920;2.332;2023-04-06T13:12:02;4.75;1.75;1.00
69205;PMS7003;56319;48.920;2.332;2023-04-06T13:14:30;4.00;2.00;2.00
69205;PMS7003;56319;48.920;2.332;2023-04-06T13:16:57;3.50;2.75;2.00
69205;PMS7003;56319;48.920;2.332;2023-04-06T13:19:22;5.75;2.25;2.00
69205;PMS7003;56319;48.920;2.332;2023-04-06T13:21:48;3.00;3.00;2.00
69205;PMS7003;56319;48.920;2.332;2023-04-06T13:24:14;5.00;3.00;2.00
69205;PMS7003;56319;48.920;2.332;2023-04-06T13:26:39;3.25;2.00;2.00
69205;PMS7003;56319;48.920;2.332;2023-04-06T13:29:05;3.00;2.00;2.00
69205;PMS7003;56319;48.920;2.332;2023-04-06T13:31:30;2.50;2.00;2.00
69205;PMS7003;56319;48.920;2.332;2023-04-06T13:33:56;5.75;2.00;2.00
69205;PMS7003;56319;48.920;2.332;2023-04-06T13:36:22;2.50;1.75;1.75
69205;PMS7003;56319;48.920;2.332;2023-04-06T13:38:47;3.00;3.00;2.00
69205;PMS7003;56319;48.920;2.332;2023-04-06T13:43:58;2.25;2.25;2.00
69205;PMS7003;56319;48.920;2.332;2023-04-06T13:46:24;3.50;2.25;2.25
69205;PMS7003;56319;48.920;2.332;2023-04-06T13:48:50;2.50;2.00;2.00
69205;PMS7003;56319;48.920;2.332;2023-04-06T13:51:16;2.50;2.50;2.00
69205;PMS7003;56319;48.920;2.332;2023-04-06T13:53:41;3.50;3.00;2.50
69205;PMS7003;56319;48.920;2.332;2023-04-06T13:56:07;1.00;1.00;1.00
69205;PMS7003;56319;48.920;2.332;2023-04-06T13:58:33;3.50;3.50;2.75
69205;PMS7003;56319;48.920;2.332;2023-04-06T14:01:03;2.00;1.50;1.00
69205;PMS7003;56319;48.920;2.332;2023-04-06T14:03:31;3.75;2.00;1.75
69205;PMS7003;56319;48.920;2.332;2023-04-06T14:05:57;2.75;0.50;0.25
69205;PMS7003;56319;48.920;2.332;2023-04-06T14:08:22;5.00;3.00;2.00
69205;PMS7003;56319;48.920;2.332;2023-04-06T14:10:48;3.25;2.25;1.75
69205;PMS7003;56319;48.920;2.332;2023-04-06T14:13:13;3.00;2.00;1.00
69205;PMS7003;56319;48.920;2.332;2023-04-06T14:15:38;2.00;1.00;1.00
69205;PMS7003;56319;48.920;2.332;2023-04-06T14:18:04;5.00;2.25;2.00
69205;PMS7003;56319;48.920;2.332;2023-04-06T14:20:32;2.25;2.00;2.00
69205;PMS7003;56319;48.920;2.332;2023-04-06T14:22:59;4.00;3.25;2.75
69205;PMS7003;56319;48.920;2.332;2023-04-06T14:25:26;5.50;1.00;1.00
69205;PMS7003;56319;48.920;2.332;2023-04-06T14:27:52;2.00;2.00;1.25
69205;PMS7003;56319;48.920;2.332;2023-04-06T14:30:18;2.25;1.50;1.00
69205;PMS7003;56319;48.920;2.332;2023-04-06T14:32:43;2.50;1.75;1.25
69205;PMS7003;56319;48.920;2.332;2023-04-06T14:35:09;1.50;1.50;1.00